Buffalo, Illinois
Current Conditions -  °F | °C
As of 10:52 AM on Saturday 25 Oct 2014 (Local Time) from KSPI Reporting Station
Haze Haze  
Wind Chill: 20°   Ceiling: Unl
Heat Index: 20°   Visibility: 4mi
Dew Point: 16°   Wind: 6mph
Humidity: 76%   Direction: 270°W
Pressure: 30.04"   Gusts: NA
Location:  39.85°N, 89.41°W
Report Text: KSPI 251552Z 27005KT 4SM HZ CLR 20/16 A3004 RMK AO2 SLP168 T02000156
Loading
Personal Weather Stations






























Interactive Weather Map
Tropical Storm Tracking
New forecast layout! Learn more

10-Day Weather Forecast

Advertisements
Track Severe Weather on mobile